Mormon Island, California
Current Conditions -  °F | °C
As of 9:47 AM on Monday 26 Jan 2015 (Local Time) from KMHR Reporting Station
Haze Haze  
Wind Chill: 45°   Ceiling: 11000
Heat Index: 48°   Visibility: 4mi
Dew Point: 48°   Wind: 8mph
Humidity: 100%   Direction: 360°N
Pressure: 30.07"   Gusts: NA
Location:  38.6648°N, 121.141°W
Report Text: KMHR 261747Z 36007KT 4SM BR SCT060 BKN110 09/09 A3007
Loading
Personal Weather Stations






























Interactive Weather Map New forecast layout! Learn more

10-Day Weather Forecast

Advertisements
Track Severe Weather on mobile